Time,TemperatureF,DewpointF,PressureIn,WindDirection,WindDirectionDegrees,WindSpeedMPH,WindSpeedGustMPH,Humidity,HourlyPrecipIn,Conditions,Clouds,dailyrainin,SoftwareType,DateUTC
2013-03-22 00:04:00,51.5,48.1,29.72,NNE,14,0.0,1.0,88,0.00,,CLR,0.00,VWS V13.01,2013-03-22 07:04:00,
2013-03-22 00:09:00,51.5,48.4,29.72,NNE,14,0.0,0.0,89,0.00,,CLR,0.00,VWS V13.01,2013-03-22 07:09:00,
2013-03-22 00:14:00,51.5,48.7,29.72,NNE,12,0.0,0.0,90,0.00,,CLR,0.00,VWS V13.01,2013-03-22 07:14:00,
2013-03-22 00:19:00,51.6,48.8,29.71,NNE,15,0.0,1.0,90,0.00,,CLR,0.00,VWS V13.01,2013-03-22 07:19:00,
2013-03-22 00:24:00,50.9,47.5,29.71,SE,140,0.0,3.0,88,0.00,,CLR,0.00,VWS V13.01,2013-03-22 07:24:00,
2013-03-22 00:29:00,50.6,47.5,29.71,SE,139,0.0,3.0,89,0.00,,CLR,0.00,VWS V13.01,2013-03-22 07:29:00,
2013-03-22 00:34:00,50.5,47.7,29.71,SE,134,0.0,3.0,90,0.00,,CLR,0.00,VWS V13.01,2013-03-22 07:34:00,
2013-03-22 00:39:00,50.6,47.8,29.71,SE,134,0.0,0.0,90,0.00,,CLR,0.00,VWS V13.01,2013-03-22 07:39:00,
2013-03-22 00:44:00,50.7,47.9,29.70,SE,134,0.0,0.0,90,0.00,,CLR,0.00,VWS V13.01,2013-03-22 07:44:00,
2013-03-22 00:49:00,50.9,48.4,29.70,SE,134,0.0,0.0,91,0.00,,CLR,0.00,VWS V13.01,2013-03-22 07:49:00,
2013-03-22 00:54:00,51.0,48.5,29.70,SE,134,0.0,0.0,91,0.00,,CLR,0.00,VWS V13.01,2013-03-22 07:54:00,
2013-03-22 00:59:00,51.2,49.0,29.70,SE,134,0.0,1.0,92,0.00,,CLR,0.00,VWS V13.01,2013-03-22 07:59:00,
2013-03-22 01:04:00,51.5,49.3,29.71,SSE,154,0.0,2.0,92,0.00,,BKN005,0.00,VWS V13.01,2013-03-22 08:04:00,
2013-03-22 01:09:00,51.6,49.4,29.71,SSE,154,0.0,0.0,92,0.00,,BKN005,0.00,VWS V13.01,2013-03-22 08:09:00,
2013-03-22 01:14:00,51.7,49.5,29.71,SSE,154,0.0,0.0,92,0.00,,BKN005,0.00,VWS V13.01,2013-03-22 08:14:00,
2013-03-22 01:19:00,51.7,49.5,29.71,SSE,154,0.0,0.0,92,0.00,,BKN005,0.00,VWS V13.01,2013-03-22 08:19:00,
2013-03-22 01:24:00,51.7,49.5,29.70,SE,144,1.0,1.0,92,0.00,,BKN005,0.00,VWS V13.01,2013-03-22 08:24:00,
2013-03-22 01:29:00,51.3,48.5,29.70,SE,144,0.0,1.0,90,0.00,,BKN005,0.00,VWS V13.01,2013-03-22 08:29:00,
2013-03-22 01:34:00,51.2,48.7,29.70,SE,144,0.0,1.0,91,0.00,,BKN005,0.00,VWS V13.01,2013-03-22 08:34:00,
2013-03-22 01:39:00,51.4,48.9,29.71,SE,144,0.0,0.0,91,0.00,,BKN005,0.00,VWS V13.01,2013-03-22 08:39:00,
2013-03-22 01:44:00,51.3,48.8,29.71,SE,144,0.0,1.0,91,0.00,,BKN005,0.00,VWS V13.01,2013-03-22 08:44:00,
2013-03-22 01:49:00,51.2,48.4,29.71,SE,144,0.0,1.0,90,0.00,,BKN005,0.00,VWS V13.01,2013-03-22 08:49:00,
2013-03-22 01:54:00,51.1,48.6,29.72,SSE,147,0.0,1.0,91,0.00,,BKN005,0.00,VWS V13.01,2013-03-22 08:54:00,
2013-03-22 01:59:00,51.3,49.1,29.72,SSE,147,0.0,1.0,92,0.00,,BKN005,0.00,VWS V13.01,2013-03-22 08:59:00,
2013-03-22 02:04:00,51.4,49.2,29.71,SSE,147,0.0,1.0,92,0.00,,OVC020,0.00,VWS V13.01,2013-03-22 09:04:00,
2013-03-22 02:09:00,51.6,49.4,29.71,SSE,147,0.0,0.0,92,0.00,,OVC020,0.00,VWS V13.01,2013-03-22 09:09:00,
2013-03-22 02:14:00,51.7,49.8,29.71,South,175,0.0,1.0,93,0.00,,OVC020,0.00,VWS V13.01,2013-03-22 09:14:00,
2013-03-22 02:19:00,51.8,49.8,29.71,South,175,0.0,1.0,93,0.00,,OVC020,0.00,VWS V13.01,2013-03-22 09:19:00,
2013-03-22 02:24:00,51.9,49.9,29.71,West,262,0.0,3.0,93,0.00,,OVC020,0.00,VWS V13.01,2013-03-22 09:24:00,
2013-03-22 02:29:00,51.8,49.5,29.71,WNW,288,0.0,3.0,92,0.00,,OVC020,0.00,VWS V13.01,2013-03-22 09:29:00,
2013-03-22 02:34:00,51.8,49.5,29.70,WNW,288,0.0,3.0,92,0.00,,OVC020,0.00,VWS V13.01,2013-03-22 09:34:00,
2013-03-22 02:39:00,51.8,49.5,29.71,WNW,293,0.0,0.0,92,0.00,,OVC020,0.00,VWS V13.01,2013-03-22 09:39:00,
2013-03-22 02:44:00,51.8,49.5,29.71,WNW,293,0.0,0.0,92,0.00,,OVC020,0.00,VWS V13.01,2013-03-22 09:44:00,
2013-03-22 02:49:00,51.8,49.5,29.70,WNW,293,0.0,0.0,92,0.00,,OVC020,0.00,VWS V13.01,2013-03-22 09:49:00,
2013-03-22 02:54:00,51.9,49.7,29.70,WNW,291,0.0,2.0,92,0.00,,OVC020,0.00,VWS V13.01,2013-03-22 09:54:00,
2013-03-22 02:59:00,51.9,49.7,29.70,WNW,291,0.0,2.0,92,0.00,,OVC020,0.00,VWS V13.01,2013-03-22 09:59:00,
2013-03-22 03:04:00,51.8,49.3,29.70,NE,50,0.0,2.0,91,0.00,,FEW025,0.00,VWS V13.01,2013-03-22 10:04:00,
2013-03-22 03:09:00,51.7,49.2,29.70,NE,50,0.0,0.0,91,0.00,,FEW025,0.00,VWS V13.01,2013-03-22 10:09:00,
2013-03-22 03:14:00,51.6,49.1,29.70,NE,51,1.0,2.0,91,0.00,,FEW025,0.00,VWS V13.01,2013-03-22 10:14:00,
2013-03-22 03:19:00,51.6,49.1,29.70,East,92,0.0,3.0,91,0.00,,FEW025,0.00,VWS V13.01,2013-03-22 10:19:00,
2013-03-22 03:24:00,51.6,49.1,29.70,East,92,0.0,3.0,91,0.00,,FEW025,0.00,VWS V13.01,2013-03-22 10:24:00,
2013-03-22 03:29:00,51.6,49.1,29.69,East,86,0.0,3.0,91,0.00,,FEW025,0.00,VWS V13.01,2013-03-22 10:29:00,
2013-03-22 03:34:00,51.6,49.1,29.69,East,86,0.0,3.0,91,0.00,,FEW025,0.00,VWS V13.01,2013-03-22 10:34:00,
2013-03-22 03:39:00,51.6,49.1,29.69,ENE,65,0.0,0.0,91,0.00,,FEW025,0.00,VWS V13.01,2013-03-22 10:39:00,
2013-03-22 03:44:00,51.7,49.2,29.69,ENE,65,0.0,1.0,91,0.00,,FEW025,0.00,VWS V13.01,2013-03-22 10:44:00,
2013-03-22 03:49:00,51.7,49.2,29.69,ENE,65,0.0,1.0,91,0.00,,FEW025,0.00,VWS V13.01,2013-03-22 10:49:00,
2013-03-22 03:54:00,51.8,49.3,29.69,ENE,65,1.0,2.0,91,0.00,,FEW025,0.00,VWS V13.01,2013-03-22 10:54:00,
2013-03-22 03:59:00,51.8,49.0,29.69,ENE,65,0.0,2.0,90,0.00,,FEW025,0.00,VWS V13.01,2013-03-22 10:59:00,
2013-03-22 04:04:00,51.9,49.4,29.69,ENE,65,0.0,2.0,91,0.00,,CLR,0.00,VWS V13.01,2013-03-22 11:04:00,
2013-03-22 04:09:00,51.9,49.1,29.69,ENE,65,0.0,0.0,90,0.00,,CLR,0.00,VWS V13.01,2013-03-22 11:09:00,
2013-03-22 04:14:00,52.0,49.2,29.69,ENE,65,0.0,1.0,90,0.00,,CLR,0.00,VWS V13.01,2013-03-22 11:14:00,
2013-03-22 04:19:00,51.9,48.8,29.69,ENE,70,0.0,3.0,89,0.00,,CLR,0.00,VWS V13.01,2013-03-22 11:19:00,
2013-03-22 04:24:00,51.9,48.8,29.69,ENE,70,0.0,3.0,89,0.00,,CLR,0.00,VWS V13.01,2013-03-22 11:24:00,
2013-03-22 04:29:00,52.0,48.9,29.69,ENE,70,0.0,3.0,89,0.00,,CLR,0.00,VWS V13.01,2013-03-22 11:29:00,
2013-03-22 04:34:00,52.0,48.9,29.69,ENE,67,0.0,3.0,89,0.00,,CLR,0.00,VWS V13.01,2013-03-22 11:34:00,
2013-03-22 04:39:00,52.1,49.0,29.69,ENE,57,0.0,2.0,89,0.00,,CLR,0.00,VWS V13.01,2013-03-22 11:39:00,
2013-03-22 04:44:00,52.1,49.0,29.69,ENE,57,0.0,2.0,89,0.00,,CLR,0.00,VWS V13.01,2013-03-22 11:44:00,
2013-03-22 04:49:00,52.1,49.0,29.69,ENE,57,0.0,2.0,89,0.00,,CLR,0.00,VWS V13.01,2013-03-22 11:49:00,
2013-03-22 04:54:00,52.2,49.1,29.69,ENE,57,0.0,2.0,89,0.00,,CLR,0.00,VWS V13.01,2013-03-22 11:54:00,
2013-03-22 04:59:00,52.2,49.1,29.69,ENE,57,0.0,2.0,89,0.00,,CLR,0.00,VWS V13.01,2013-03-22 11:59:00,
2013-03-22 05:04:00,52.2,48.8,29.69,ENE,57,0.0,2.0,88,0.00,,CLR,0.00,VWS V13.01,2013-03-22 12:04:00,
2013-03-22 05:09:00,52.2,48.8,29.69,ENE,57,0.0,1.0,88,0.00,,CLR,0.00,VWS V13.01,2013-03-22 12:09:00,
2013-03-22 05:14:00,52.2,48.8,29.69,ENE,57,0.0,1.0,88,0.00,,CLR,0.00,VWS V13.01,2013-03-22 12:14:00,
2013-03-22 05:19:00,52.2,48.8,29.69,ENE,57,0.0,1.0,88,0.00,,CLR,0.00,VWS V13.01,2013-03-22 12:19:00,
2013-03-22 05:24:00,52.1,48.7,29.69,ENE,57,0.0,2.0,88,0.00,,CLR,0.00,VWS V13.01,2013-03-22 12:24:00,
2013-03-22 05:29:00,52.2,48.8,29.69,ENE,57,0.0,2.0,88,0.00,,CLR,0.00,VWS V13.01,2013-03-22 12:29:00,
2013-03-22 05:34:00,52.2,48.8,29.69,ENE,57,0.0,2.0,88,0.00,,CLR,0.00,VWS V13.01,2013-03-22 12:34:00,
2013-03-22 05:39:00,52.2,48.8,29.70,ENE,57,0.0,0.0,88,0.00,,CLR,0.00,VWS V13.01,2013-03-22 12:39:00,
2013-03-22 05:44:00,52.3,48.9,29.69,ENE,57,0.0,0.0,88,0.00,,CLR,0.00,VWS V13.01,2013-03-22 12:44:00,
2013-03-22 05:49:00,52.3,48.9,29.69,ENE,57,0.0,0.0,88,0.00,,CLR,0.00,VWS V13.01,2013-03-22 12:49:00,
2013-03-22 05:54:00,52.3,48.9,29.69,ENE,57,0.0,0.0,88,0.00,,CLR,0.00,VWS V13.01,2013-03-22 12:54:00,
2013-03-22 05:59:00,52.3,48.9,29.69,ENE,57,0.0,1.0,88,0.00,,CLR,0.00,VWS V13.01,2013-03-22 12:59:00,
2013-03-22 06:04:00,52.4,49.0,29.70,ENE,57,0.0,1.0,88,0.00,,CLR,0.00,VWS V13.01,2013-03-22 13:04:00,
2013-03-22 06:09:00,52.4,49.0,29.70,ENE,57,0.0,0.0,88,0.00,,CLR,0.00,VWS V13.01,2013-03-22 13:09:00,
2013-03-22 06:14:00,52.4,49.0,29.70,ENE,57,1.0,1.0,88,0.00,,CLR,0.00,VWS V13.01,2013-03-22 13:14:00,
2013-03-22 06:19:00,52.4,49.0,29.70,NE,55,0.0,1.0,88,0.00,,CLR,0.00,VWS V13.01,2013-03-22 13:19:00,
2013-03-22 06:24:00,52.4,49.0,29.70,NE,55,0.0,1.0,88,0.00,,CLR,0.00,VWS V13.01,2013-03-22 13:24:00,
2013-03-22 06:30:00,52.4,49.0,29.70,NE,55,0.0,1.0,88,0.00,,CLR,0.00,VWS V13.01,2013-03-22 13:30:00,
2013-03-22 06:35:00,52.4,49.0,29.71,NE,55,0.0,1.0,88,0.00,,CLR,0.00,VWS V13.01,2013-03-22 13:35:00,
2013-03-22 06:40:00,52.4,48.7,29.71,NE,55,0.0,1.0,87,0.00,,CLR,0.00,VWS V13.01,2013-03-22 13:40:00,
2013-03-22 06:45:00,52.3,48.5,29.71,NE,55,0.0,1.0,87,0.00,,CLR,0.00,VWS V13.01,2013-03-22 13:45:00,
2013-03-22 06:50:00,52.3,48.5,29.72,NE,53,0.0,1.0,87,0.00,,CLR,0.00,VWS V13.01,2013-03-22 13:50:00,
2013-03-22 06:55:00,52.3,48.5,29.72,NE,52,0.0,1.0,87,0.00,,CLR,0.00,VWS V13.01,2013-03-22 13:55:00,
2013-03-22 07:00:00,52.2,48.5,29.72,ENE,57,0.0,1.0,87,0.00,,CLR,0.00,VWS V13.01,2013-03-22 14:00:00,
2013-03-22 07:05:00,52.2,48.5,29.72,ENE,57,0.0,1.0,87,0.00,,BKN120,0.00,VWS V13.01,2013-03-22 14:05:00,
2013-03-22 07:10:00,52.2,48.5,29.72,ENE,57,0.0,0.0,87,0.00,,BKN120,0.00,VWS V13.01,2013-03-22 14:10:00,
2013-03-22 07:15:00,52.1,48.4,29.72,ENE,57,0.0,0.0,87,0.00,,BKN120,0.00,VWS V13.01,2013-03-22 14:15:00,
2013-03-22 07:20:00,52.2,48.5,29.73,ENE,57,0.0,0.0,87,0.00,,BKN120,0.00,VWS V13.01,2013-03-22 14:20:00,
2013-03-22 07:25:00,52.1,48.4,29.73,ENE,57,0.0,1.0,87,0.00,,BKN120,0.00,VWS V13.01,2013-03-22 14:25:00,
2013-03-22 07:30:00,52.2,48.2,29.73,ENE,57,0.0,1.0,86,0.00,,BKN120,0.00,VWS V13.01,2013-03-22 14:30:00,
2013-03-22 07:35:00,52.1,48.0,29.73,ENE,57,0.0,2.0,86,0.00,,BKN120,0.00,VWS V13.01,2013-03-22 14:35:00,
2013-03-22 07:40:00,52.2,48.2,29.73,ENE,57,0.0,1.0,86,0.00,,BKN120,0.00,VWS V13.01,2013-03-22 14:40:00,
2013-03-22 07:45:00,52.3,48.5,29.73,ENE,57,0.0,1.0,87,0.00,,BKN120,0.00,VWS V13.01,2013-03-22 14:45:00,
2013-03-22 07:50:00,52.4,48.7,29.73,ENE,57,0.0,1.0,87,0.00,,BKN120,0.00,VWS V13.01,2013-03-22 14:50:00,
2013-03-22 07:55:00,52.5,48.4,29.73,ENE,57,0.0,1.0,86,0.00,,BKN120,0.00,VWS V13.01,2013-03-22 14:55:00,
2013-03-22 08:00:00,52.7,48.6,29.73,ENE,57,0.0,1.0,86,0.00,,BKN120,0.00,VWS V13.01,2013-03-22 15:00:00,
2013-03-22 08:05:00,52.9,48.8,29.73,ENE,57,0.0,1.0,86,0.00,,SCT250,0.00,VWS V13.01,2013-03-22 15:05:00,
2013-03-22 08:10:00,53.2,48.5,29.73,South,180,0.0,2.0,84,0.00,,SCT250,0.00,VWS V13.01,2013-03-22 15:10:00,
2013-03-22 08:15:00,53.6,48.6,29.73,SSW,194,1.0,2.0,83,0.00,,SCT250,0.00,VWS V13.01,2013-03-22 15:15:00,
2013-03-22 08:20:00,53.7,48.3,29.73,ENE,76,0.0,2.0,82,0.00,,SCT250,0.00,VWS V13.01,2013-03-22 15:20:00,
2013-03-22 08:25:00,53.9,48.5,29.73,ESE,114,0.0,2.0,82,0.00,,SCT250,0.00,VWS V13.01,2013-03-22 15:25:00,
2013-03-22 08:30:00,54.1,48.7,29.73,East,80,0.0,3.0,82,0.00,,SCT250,0.00,VWS V13.01,2013-03-22 15:30:00,
2013-03-22 08:35:00,54.2,48.5,29.74,East,80,0.0,3.0,81,0.00,,SCT250,0.00,VWS V13.01,2013-03-22 15:35:00,
2013-03-22 08:40:00,54.3,48.6,29.74,NNW,338,0.0,2.0,81,0.00,,SCT250,0.00,VWS V13.01,2013-03-22 15:40:00,
2013-03-22 08:45:00,54.3,48.6,29.74,WSW,250,0.0,3.0,81,0.00,,SCT250,0.00,VWS V13.01,2013-03-22 15:45:00,
2013-03-22 08:50:00,54.4,48.7,29.74,NW,312,0.0,3.0,81,0.00,,SCT250,0.00,VWS V13.01,2013-03-22 15:50:00,
2013-03-22 08:55:00,54.7,49.0,29.74,WNW,283,0.0,3.0,81,0.00,,SCT250,0.00,VWS V13.01,2013-03-22 15:55:00,
2013-03-22 09:00:00,54.9,48.9,29.74,West,265,2.0,4.0,80,0.00,,SCT250,0.00,VWS V13.01,2013-03-22 16:00:00,
2013-03-22 09:05:00,55.0,49.0,29.74,West,263,0.0,4.0,80,0.00,,FEW025,0.00,VWS V13.01,2013-03-22 16:05:00,
2013-03-22 09:10:00,55.3,49.2,29.75,WSW,238,0.0,1.0,80,0.00,,FEW025,0.00,VWS V13.01,2013-03-22 16:10:00,
2013-03-22 09:15:00,55.7,49.6,29.75,NW,309,2.0,2.0,80,0.00,,FEW025,0.00,VWS V13.01,2013-03-22 16:15:00,
2013-03-22 09:20:00,56.1,49.7,29.75,West,275,1.0,4.0,79,0.00,,FEW025,0.00,VWS V13.01,2013-03-22 16:20:00,
2013-03-22 09:25:00,56.2,49.4,29.76,WNW,286,3.0,4.0,78,0.00,,FEW025,0.00,VWS V13.01,2013-03-22 16:25:00,
2013-03-22 09:30:00,56.1,49.7,29.76,West,261,0.0,4.0,79,0.00,,FEW025,0.00,VWS V13.01,2013-03-22 16:30:00,
2013-03-22 09:35:00,56.1,49.3,29.76,WNW,298,0.0,4.0,78,0.00,,FEW025,0.00,VWS V13.01,2013-03-22 16:35:00,
2013-03-22 09:40:00,56.1,49.3,29.76,WNW,298,1.0,2.0,78,0.00,,FEW025,0.00,VWS V13.01,2013-03-22 16:40:00,
2013-03-22 09:45:00,56.1,49.7,29.76,WNW,298,1.0,2.0,79,0.00,,FEW025,0.00,VWS V13.01,2013-03-22 16:45:00,
2013-03-22 09:50:00,56.6,49.8,29.76,SSW,198,0.0,3.0,78,0.00,,FEW025,0.00,VWS V13.01,2013-03-22 16:50:00,
2013-03-22 09:55:00,57.3,50.2,29.76,SSW,194,0.0,3.0,77,0.00,,FEW025,0.00,VWS V13.01,2013-03-22 16:55:00,
2013-03-22 10:00:00,58.4,50.5,29.76,NNE,32,0.0,3.0,75,0.00,,FEW025,0.00,VWS V13.01,2013-03-22 17:00:00,
2013-03-22 10:05:00,58.7,50.5,29.76,SW,226,0.0,3.0,74,0.00,,BKN025,0.00,VWS V13.01,2013-03-22 17:05:00,
2013-03-22 10:10:00,58.5,49.9,29.76,SW,229,0.0,3.0,73,0.00,,BKN025,0.00,VWS V13.01,2013-03-22 17:10:00,
2013-03-22 10:15:00,58.4,49.8,29.75,WNW,298,1.0,3.0,73,0.00,,BKN025,0.00,VWS V13.01,2013-03-22 17:15:00,
2013-03-22 10:20:00,58.7,50.1,29.76,West,265,1.0,3.0,73,0.00,,BKN025,0.00,VWS V13.01,2013-03-22 17:20:00,
2013-03-22 10:25:00,59.2,50.6,29.75,SW,228,2.0,4.0,73,0.00,,BKN025,0.00,VWS V13.01,2013-03-22 17:25:00,
2013-03-22 10:30:00,59.7,50.7,29.75,SSW,202,0.0,4.0,72,0.00,,BKN025,0.00,VWS V13.01,2013-03-22 17:30:00,
2013-03-22 10:35:00,60.3,51.2,29.75,SW,233,1.0,6.0,72,0.00,,BKN025,0.00,VWS V13.01,2013-03-22 17:35:00,
2013-03-22 10:40:00,60.4,50.6,29.75,SE,143,0.0,4.0,70,0.00,,BKN025,0.00,VWS V13.01,2013-03-22 17:40:00,
2013-03-22 10:45:00,60.6,51.2,29.75,WSW,241,1.0,4.0,71,0.00,,BKN025,0.00,VWS V13.01,2013-03-22 17:45:00,
2013-03-22 10:50:00,61.1,51.2,29.75,SW,236,1.0,4.0,70,0.00,,BKN025,0.00,VWS V13.01,2013-03-22 17:50:00,
2013-03-22 10:55:00,61.5,51.2,29.75,West,263,4.0,4.0,69,0.00,,BKN025,0.00,VWS V13.01,2013-03-22 17:55:00,
2013-03-22 11:00:00,61.8,51.1,29.75,West,259,2.0,5.0,68,0.00,,BKN025,0.00,VWS V13.01,2013-03-22 18:00:00,
2013-03-22 11:05:00,62.0,51.3,29.75,WSW,254,3.0,5.0,68,0.00,,BKN027,0.00,VWS V13.01,2013-03-22 18:05:00,
2013-03-22 11:10:00,62.2,50.7,29.75,WSW,254,1.0,3.0,66,0.00,,BKN027,0.00,VWS V13.01,2013-03-22 18:10:00,
2013-03-22 11:15:00,62.3,50.8,29.75,West,274,0.0,3.0,66,0.00,,BKN027,0.00,VWS V13.01,2013-03-22 18:15:00,
2013-03-22 11:20:00,62.9,51.4,29.75,ENE,61,0.0,3.0,66,0.00,,BKN027,0.00,VWS V13.01,2013-03-22 18:20:00,
2013-03-22 11:25:00,63.2,50.8,29.75,WNW,284,1.0,3.0,64,0.00,,BKN027,0.00,VWS V13.01,2013-03-22 18:25:00,
2013-03-22 11:30:00,63.6,51.6,29.74,WNW,285,0.0,4.0,65,0.00,,BKN027,0.00,VWS V13.01,2013-03-22 18:30:00,
2013-03-22 11:35:00,64.3,51.9,29.74,West,261,0.0,4.0,64,0.00,,BKN027,0.00,VWS V13.01,2013-03-22 18:35:00,
2013-03-22 11:40:00,64.8,51.9,29.74,West,281,0.0,2.0,63,0.00,,BKN027,0.00,VWS V13.01,2013-03-22 18:40:00,
2013-03-22 11:45:00,65.1,52.2,29.74,West,270,2.0,4.0,63,0.00,,BKN027,0.00,VWS V13.01,2013-03-22 18:45:00,
2013-03-22 11:50:00,65.2,52.3,29.74,West,259,1.0,4.0,63,0.00,,BKN027,0.00,VWS V13.01,2013-03-22 18:50:00,
2013-03-22 11:55:00,65.4,52.9,29.74,NNW,347,1.0,7.0,64,0.00,,BKN027,0.00,VWS V13.01,2013-03-22 18:55:00,
2013-03-22 12:00:00,65.6,52.2,29.74,WNW,295,0.0,8.0,62,0.00,,BKN027,0.00,VWS V13.01,2013-03-22 19:00:00,
2013-03-22 12:05:00,65.6,52.7,29.74,West,269,2.0,8.0,63,0.00,,SCT021,0.00,VWS V13.01,2013-03-22 19:05:00,
2013-03-22 12:10:00,65.8,52.4,29.74,WNW,292,6.0,8.0,62,0.00,,SCT021,0.00,VWS V13.01,2013-03-22 19:10:00,
2013-03-22 12:15:00,65.6,52.2,29.74,NW,315,1.0,8.0,62,0.00,,SCT021,0.00,VWS V13.01,2013-03-22 19:15:00,
2013-03-22 12:20:00,65.7,52.8,29.74,WSW,242,3.0,8.0,63,0.00,,SCT021,0.00,VWS V13.01,2013-03-22 19:20:00,
2013-03-22 12:25:00,65.9,52.5,29.74,West,259,2.0,8.0,62,0.00,,SCT021,0.00,VWS V13.01,2013-03-22 19:25:00,
2013-03-22 12:30:00,65.8,52.0,29.74,NW,311,3.0,8.0,61,0.00,,SCT021,0.00,VWS V13.01,2013-03-22 19:30:00,
2013-03-22 12:35:00,65.9,52.5,29.74,WNW,290,1.0,8.0,62,0.00,,SCT021,0.00,VWS V13.01,2013-03-22 19:35:00,
2013-03-22 12:40:00,66.6,52.8,29.74,SW,222,1.0,6.0,61,0.00,,SCT021,0.00,VWS V13.01,2013-03-22 19:40:00,
2013-03-22 12:45:00,67.0,52.2,29.74,WNW,303,5.0,10.0,59,0.00,,SCT021,0.00,VWS V13.01,2013-03-22 19:45:00,
2013-03-22 12:50:00,67.2,52.9,29.74,WSW,257,2.0,10.0,60,0.00,,SCT021,0.00,VWS V13.01,2013-03-22 19:50:00,
2013-03-22 12:55:00,67.5,53.1,29.74,WNW,296,0.0,10.0,60,0.00,,SCT021,0.00,VWS V13.01,2013-03-22 19:55:00,
2013-03-22 13:00:00,68.0,53.2,29.74,NW,306,3.0,10.0,59,0.00,,SCT021,0.00,VWS V13.01,2013-03-22 20:00:00,
2013-03-22 13:05:00,68.0,52.7,29.74,WNW,298,3.0,10.0,58,0.00,,FEW022,0.00,VWS V13.01,2013-03-22 20:05:00,
2013-03-22 13:10:00,68.4,52.1,29.73,West,281,0.0,4.0,56,0.00,,FEW022,0.00,VWS V13.01,2013-03-22 20:10:00,
2013-03-22 13:15:00,68.6,52.8,29.73,West,280,1.0,6.0,57,0.00,,FEW022,0.00,VWS V13.01,2013-03-22 20:15:00,
2013-03-22 13:20:00,68.7,52.4,29.73,WNW,302,3.0,8.0,56,0.00,,FEW022,0.00,VWS V13.01,2013-03-22 20:20:00,
2013-03-22 13:25:00,69.0,52.7,29.73,ENE,72,3.0,8.0,56,0.00,,FEW022,0.00,VWS V13.01,2013-03-22 20:25:00,
2013-03-22 13:30:00,69.4,53.5,29.73,East,79,1.0,8.0,57,0.00,,FEW022,0.00,VWS V13.01,2013-03-22 20:30:00,
2013-03-22 13:35:00,69.9,53.0,29.73,NW,311,0.0,8.0,55,0.00,,FEW022,0.00,VWS V13.01,2013-03-22 20:35:00,
2013-03-22 13:41:00,70.1,53.7,29.72,WNW,298,3.0,7.0,56,0.00,,FEW022,0.00,VWS V13.01,2013-03-22 20:41:00,
2013-03-22 13:46:00,69.7,54.3,29.72,WNW,296,1.0,9.0,58,0.00,,FEW022,0.00,VWS V13.01,2013-03-22 20:46:00,
2013-03-22 13:51:00,70.1,54.7,29.72,NW,307,5.0,9.0,58,0.00,,FEW022,0.00,VWS V13.01,2013-03-22 20:51:00,
2013-03-22 13:56:00,69.8,53.9,29.72,NW,308,1.0,9.0,57,0.00,,FEW022,0.00,VWS V13.01,2013-03-22 20:56:00,
2013-03-22 14:01:00,69.4,54.0,29.72,NW,306,2.0,9.0,58,0.00,,FEW022,0.00,VWS V13.01,2013-03-22 21:01:00,
2013-03-22 14:06:00,69.3,54.4,29.72,WNW,284,2.0,9.0,59,0.00,,FEW023,0.00,VWS V13.01,2013-03-22 21:06:00,
2013-03-22 14:11:00,69.2,53.8,29.72,WNW,298,5.0,5.0,58,0.00,,FEW023,0.00,VWS V13.01,2013-03-22 21:11:00,
2013-03-22 14:16:00,69.0,54.1,29.72,NW,314,0.0,7.0,59,0.00,,FEW023,0.00,VWS V13.01,2013-03-22 21:16:00,
2013-03-22 14:21:00,68.9,54.5,29.72,WSW,247,1.0,7.0,60,0.00,,FEW023,0.00,VWS V13.01,2013-03-22 21:21:00,
2013-03-22 14:26:00,69.3,54.8,29.71,WNW,284,0.0,7.0,60,0.00,,FEW023,0.00,VWS V13.01,2013-03-22 21:26:00,
2013-03-22 14:31:00,69.8,54.4,29.71,NW,313,0.0,8.0,58,0.00,,FEW023,0.00,VWS V13.01,2013-03-22 21:31:00,
2013-03-22 14:36:00,70.3,55.3,29.72,West,272,1.0,8.0,59,0.00,,FEW023,0.00,VWS V13.01,2013-03-22 21:36:00,
2013-03-22 14:41:00,70.5,54.5,29.72,WNW,282,3.0,7.0,57,0.00,,FEW023,0.00,VWS V13.01,2013-03-22 21:41:00,
2013-03-22 14:46:00,70.4,54.9,29.72,WSW,254,2.0,7.0,58,0.00,,FEW023,0.00,VWS V13.01,2013-03-22 21:46:00,
2013-03-22 14:51:00,70.4,54.5,29.72,West,259,1.0,7.0,57,0.00,,FEW023,0.00,VWS V13.01,2013-03-22 21:51:00,
2013-03-22 14:56:00,70.2,55.2,29.71,WNW,299,1.0,7.0,59,0.00,,FEW023,0.00,VWS V13.01,2013-03-22 21:56:00,
2013-03-22 15:01:00,70.4,54.5,29.71,WNW,294,0.0,7.0,57,0.00,,FEW023,0.00,VWS V13.01,2013-03-22 22:01:00,
2013-03-22 15:06:00,70.5,54.5,29.71,WNW,293,4.0,7.0,57,0.00,,FEW023,0.00,VWS V13.01,2013-03-22 22:06:00,
2013-03-22 15:11:00,70.3,54.8,29.71,WNW,288,2.0,4.0,58,0.00,,FEW023,0.00,VWS V13.01,2013-03-22 22:11:00,
2013-03-22 15:16:00,70.3,54.8,29.71,West,277,3.0,6.0,58,0.00,,FEW023,0.00,VWS V13.01,2013-03-22 22:16:00,
2013-03-22 15:21:00,70.3,54.4,29.71,West,259,4.0,7.0,57,0.00,,FEW023,0.00,VWS V13.01,2013-03-22 22:21:00,
2013-03-22 15:26:00,70.2,54.8,29.72,West,263,1.0,7.0,58,0.00,,FEW023,0.00,VWS V13.01,2013-03-22 22:26:00,
2013-03-22 15:31:00,70.0,54.1,29.71,WNW,295,2.0,7.0,57,0.00,,FEW023,0.00,VWS V13.01,2013-03-22 22:31:00,
2013-03-22 15:36:00,69.6,53.7,29.71,North,5,1.0,7.0,57,0.00,,FEW023,0.00,VWS V13.01,2013-03-22 22:36:00,
2013-03-22 15:41:00,69.9,54.9,29.71,WSW,249,2.0,6.0,59,0.00,,FEW023,0.00,VWS V13.01,2013-03-22 22:41:00,
2013-03-22 15:46:00,70.4,54.9,29.71,West,267,4.0,6.0,58,0.00,,FEW023,0.00,VWS V13.01,2013-03-22 22:46:00,
2013-03-22 15:51:00,70.7,54.2,29.71,SSW,198,0.0,6.0,56,0.00,,FEW023,0.00,VWS V13.01,2013-03-22 22:51:00,
2013-03-22 15:57:00,70.7,54.2,29.71,SW,232,5.0,6.0,56,0.00,,FEW023,0.00,VWS V13.01,2013-03-22 22:57:00,
2013-03-22 16:02:00,70.4,54.0,29.71,West,261,5.0,8.0,56,0.00,,FEW023,0.00,VWS V13.01,2013-03-22 23:02:00,
2013-03-22 16:07:00,69.9,54.0,29.71,WNW,285,3.0,8.0,57,0.00,,FEW023,0.00,VWS V13.01,2013-03-22 23:07:00,
2013-03-22 16:12:00,69.4,53.5,29.71,WSW,242,2.0,5.0,57,0.00,,FEW023,0.00,VWS V13.01,2013-03-22 23:12:00,
2013-03-22 16:17:00,69.1,53.7,29.71,SSW,204,3.0,7.0,58,0.00,,FEW023,0.00,VWS V13.01,2013-03-22 23:17:00,
2013-03-22 16:22:00,68.8,53.4,29.72,South,181,1.0,7.0,58,0.00,,FEW023,0.00,VWS V13.01,2013-03-22 23:22:00,
2013-03-22 16:27:00,68.8,53.9,29.72,South,184,0.0,7.0,59,0.00,,FEW023,0.00,VWS V13.01,2013-03-22 23:27:00,
2013-03-22 16:32:00,68.5,53.6,29.72,WNW,301,1.0,8.0,59,0.00,,FEW023,0.00,VWS V13.01,2013-03-22 23:32:00,
2013-03-22 16:37:00,68.1,53.7,29.72,NE,48,2.0,8.0,60,0.00,,FEW023,0.00,VWS V13.01,2013-03-22 23:37:00,
2013-03-22 16:42:00,67.8,53.4,29.72,NW,322,1.0,3.0,60,0.00,,FEW023,0.00,VWS V13.01,2013-03-22 23:42:00,
2013-03-22 16:47:00,67.7,53.3,29.72,West,275,3.0,4.0,60,0.00,,FEW023,0.00,VWS V13.01,2013-03-22 23:47:00,
2013-03-22 16:52:00,67.5,52.7,29.72,WSW,240,2.0,6.0,59,0.00,,FEW023,0.00,VWS V13.01,2013-03-22 23:52:00,
2013-03-22 16:57:00,67.2,52.4,29.72,WSW,243,0.0,9.0,59,0.00,,FEW023,0.00,VWS V13.01,2013-03-22 23:57:00,
2013-03-22 17:02:00,67.0,52.7,29.72,NW,315,1.0,9.0,60,0.00,,CLR,0.00,VWS V13.01,2013-03-23 00:02:00,
2013-03-22 17:07:00,67.1,52.3,29.72,SW,234,3.0,9.0,59,0.00,,CLR,0.00,VWS V13.01,2013-03-23 00:07:00,
2013-03-22 17:12:00,66.9,52.6,29.72,SSW,212,2.0,6.0,60,0.00,,CLR,0.00,VWS V13.01,2013-03-23 00:12:00,
2013-03-22 17:17:00,66.7,51.9,29.72,SW,234,3.0,7.0,59,0.00,,CLR,0.00,VWS V13.01,2013-03-23 00:17:00,
2013-03-22 17:22:00,65.9,51.6,29.72,SSW,210,1.0,7.0,60,0.00,,CLR,0.00,VWS V13.01,2013-03-23 00:22:00,
2013-03-22 17:27:00,65.2,51.4,29.72,WNW,289,3.0,7.0,61,0.00,,CLR,0.00,VWS V13.01,2013-03-23 00:27:00,
2013-03-22 17:32:00,64.8,51.5,29.73,SW,226,1.0,7.0,62,0.00,,CLR,0.00,VWS V13.01,2013-03-23 00:32:00,
2013-03-22 17:37:00,64.6,51.7,29.72,WNW,288,3.0,7.0,63,0.00,,CLR,0.00,VWS V13.01,2013-03-23 00:37:00,
2013-03-22 17:42:00,64.3,51.9,29.73,WNW,300,5.0,5.0,64,0.00,,CLR,0.00,VWS V13.01,2013-03-23 00:42:00,
2013-03-22 17:47:00,63.7,51.3,29.73,WNW,283,2.0,7.0,64,0.00,,CLR,0.00,VWS V13.01,2013-03-23 00:47:00,
2013-03-22 17:52:00,63.3,51.3,29.73,South,191,0.0,7.0,65,0.00,,CLR,0.00,VWS V13.01,2013-03-23 00:52:00,
2013-03-22 17:57:00,63.1,51.6,29.73,WSW,252,2.0,7.0,66,0.00,,CLR,0.00,VWS V13.01,2013-03-23 00:57:00,
2013-03-22 18:07:00,62.1,51.4,29.73,West,278,2.0,7.0,68,0.00,,CLR,0.00,VWS V13.01,2013-03-23 01:07:00,
2013-03-22 18:12:00,61.7,51.0,29.73,WNW,288,0.0,4.0,68,0.00,,CLR,0.00,VWS V13.01,2013-03-23 01:12:00,
2013-03-22 18:17:00,61.4,51.2,29.73,WNW,290,0.0,4.0,69,0.00,,CLR,0.00,VWS V13.01,2013-03-23 01:17:00,
2013-03-22 18:22:00,61.1,50.9,29.73,WNW,284,0.0,4.0,69,0.00,,CLR,0.00,VWS V13.01,2013-03-23 01:22:00,
2013-03-22 18:27:00,60.8,50.6,29.73,WSW,248,0.0,4.0,69,0.00,,CLR,0.00,VWS V13.01,2013-03-23 01:27:00,
2013-03-22 18:32:00,60.5,50.7,29.73,West,266,0.0,4.0,70,0.00,,CLR,0.00,VWS V13.01,2013-03-23 01:32:00,
2013-03-22 18:37:00,60.4,50.6,29.73,West,278,0.0,4.0,70,0.00,,CLR,0.00,VWS V13.01,2013-03-23 01:37:00,
2013-03-22 18:42:00,60.3,50.9,29.73,SW,229,0.0,2.0,71,0.00,,CLR,0.00,VWS V13.01,2013-03-23 01:42:00,
2013-03-22 18:47:00,60.2,50.8,29.74,WNW,292,0.0,2.0,71,0.00,,CLR,0.00,VWS V13.01,2013-03-23 01:47:00,
2013-03-22 18:52:00,59.8,50.8,29.73,West,276,2.0,4.0,72,0.00,,CLR,0.00,VWS V13.01,2013-03-23 01:52:00,
2013-03-22 18:57:00,59.3,50.7,29.73,WNW,291,0.0,4.0,73,0.00,,CLR,0.00,VWS V13.01,2013-03-23 01:57:00,
2013-03-22 19:02:00,59.0,50.4,29.74,SSW,198,1.0,4.0,73,0.00,,CLR,0.00,VWS V13.01,2013-03-23 02:02:00,
2013-03-22 19:08:00,58.7,50.5,29.74,NW,307,1.0,4.0,74,0.00,,CLR,0.00,VWS V13.01,2013-03-23 02:08:00,
2013-03-22 19:13:00,58.4,50.5,29.74,WSW,242,0.0,1.0,75,0.00,,CLR,0.00,VWS V13.01,2013-03-23 02:13:00,
2013-03-22 19:18:00,58.1,50.2,29.74,NW,310,0.0,1.0,75,0.00,,CLR,0.00,VWS V13.01,2013-03-23 02:18:00,
2013-03-22 19:23:00,57.9,50.4,29.74,NW,310,0.0,1.0,76,0.00,,CLR,0.00,VWS V13.01,2013-03-23 02:23:00,
2013-03-22 19:28:00,57.8,50.7,29.74,NW,310,0.0,1.0,77,0.00,,CLR,0.00,VWS V13.01,2013-03-23 02:28:00,
2013-03-22 19:33:00,57.6,50.1,29.74,NW,310,0.0,1.0,76,0.00,,CLR,0.00,VWS V13.01,2013-03-23 02:33:00,
2013-03-22 19:38:00,57.4,50.3,29.75,NW,310,0.0,1.0,77,0.00,,CLR,0.00,VWS V13.01,2013-03-23 02:38:00,
2013-03-22 19:43:00,57.2,50.1,29.75,NW,308,0.0,0.0,77,0.00,,CLR,0.00,VWS V13.01,2013-03-23 02:43:00,
2013-03-22 19:48:00,57.0,50.2,29.75,WNW,299,1.0,4.0,78,0.00,,CLR,0.00,VWS V13.01,2013-03-23 02:48:00,
2013-03-22 19:53:00,56.6,49.8,29.75,WNW,297,2.0,4.0,78,0.00,,CLR,0.00,VWS V13.01,2013-03-23 02:53:00,
2013-03-22 19:58:00,56.3,49.5,29.75,South,178,0.0,4.0,78,0.00,,CLR,0.00,VWS V13.01,2013-03-23 02:58:00,
2013-03-22 20:03:00,56.0,49.2,29.76,South,178,0.0,4.0,78,0.00,,CLR,0.00,VWS V13.01,2013-03-23 03:03:00,
2013-03-22 20:08:00,55.7,49.3,29.76,SW,217,0.0,4.0,79,0.00,,CLR,0.00,VWS V13.01,2013-03-23 03:08:00,
2013-03-22 20:13:00,55.5,49.1,29.76,WSW,246,0.0,3.0,79,0.00,,CLR,0.00,VWS V13.01,2013-03-23 03:13:00,
2013-03-22 20:18:00,55.3,49.2,29.76,WSW,250,0.0,3.0,80,0.00,,CLR,0.00,VWS V13.01,2013-03-23 03:18:00,
2013-03-22 20:23:00,55.2,49.2,29.76,WSW,250,0.0,3.0,80,0.00,,CLR,0.00,VWS V13.01,2013-03-23 03:23:00,
2013-03-22 20:28:00,54.9,48.9,29.76,WSW,250,0.0,3.0,80,0.00,,CLR,0.00,VWS V13.01,2013-03-23 03:28:00,
2013-03-22 20:33:00,54.5,48.5,29.77,WSW,250,0.0,3.0,80,0.00,,CLR,0.00,VWS V13.01,2013-03-23 03:33:00,
2013-03-22 20:38:00,54.4,48.7,29.77,WSW,256,0.0,3.0,81,0.00,,CLR,0.00,VWS V13.01,2013-03-23 03:38:00,
2013-03-22 20:43:00,54.1,48.4,29.77,WSW,256,0.0,0.0,81,0.00,,CLR,0.00,VWS V13.01,2013-03-23 03:43:00,
2013-03-22 20:48:00,54.0,48.6,29.77,WSW,256,0.0,1.0,82,0.00,,CLR,0.00,VWS V13.01,2013-03-23 03:48:00,
2013-03-22 20:53:00,53.5,47.8,29.77,NE,34,0.0,2.0,81,0.00,,CLR,0.00,VWS V13.01,2013-03-23 03:53:00,
2013-03-22 20:58:00,53.0,47.7,29.77,ENE,66,0.0,2.0,82,0.00,,CLR,0.00,VWS V13.01,2013-03-23 03:58:00,
2013-03-22 21:03:00,52.7,47.7,29.78,ENE,66,0.0,2.0,83,0.00,,CLR,0.00,VWS V13.01,2013-03-23 04:03:00,
2013-03-22 21:08:00,52.7,47.7,29.78,ENE,66,0.0,2.0,83,0.00,,CLR,0.00,VWS V13.01,2013-03-23 04:08:00,
2013-03-22 21:13:00,52.4,47.1,29.78,East,81,1.0,2.0,82,0.00,,CLR,0.00,VWS V13.01,2013-03-23 04:13:00,
2013-03-22 21:18:00,52.0,47.0,29.78,East,80,0.0,3.0,83,0.00,,CLR,0.00,VWS V13.01,2013-03-23 04:18:00,
2013-03-22 21:23:00,51.9,47.2,29.79,East,80,0.0,3.0,84,0.00,,CLR,0.00,VWS V13.01,2013-03-23 04:23:00,
2013-03-22 21:28:00,51.8,47.1,29.78,East,89,0.0,3.0,84,0.00,,CLR,0.00,VWS V13.01,2013-03-23 04:28:00,
2013-03-22 21:33:00,51.8,47.1,29.78,East,89,0.0,3.0,84,0.00,,CLR,0.00,VWS V13.01,2013-03-23 04:33:00,
2013-03-22 21:38:00,51.8,47.1,29.78,East,89,0.0,0.0,84,0.00,,CLR,0.00,VWS V13.01,2013-03-23 04:38:00,
2013-03-22 21:43:00,51.8,47.1,29.78,East,89,1.0,1.0,84,0.00,,CLR,0.00,VWS V13.01,2013-03-23 04:43:00,
2013-03-22 21:48:00,51.6,46.9,29.78,East,89,0.0,1.0,84,0.00,,CLR,0.00,VWS V13.01,2013-03-23 04:48:00,
2013-03-22 21:53:00,51.5,46.8,29.78,East,89,0.0,1.0,84,0.00,,CLR,0.00,VWS V13.01,2013-03-23 04:53:00,
2013-03-22 21:58:00,51.6,47.6,29.78,East,89,0.0,1.0,86,0.00,,CLR,0.00,VWS V13.01,2013-03-23 04:58:00,
2013-03-22 22:03:00,51.7,47.7,29.78,East,89,0.0,1.0,86,0.00,,CLR,0.00,VWS V13.01,2013-03-23 05:03:00,
2013-03-22 22:08:00,51.8,47.8,29.78,East,89,0.0,0.0,86,0.00,,CLR,0.00,VWS V13.01,2013-03-23 05:08:00,
2013-03-22 22:13:00,51.8,47.4,29.78,East,89,0.0,0.0,85,0.00,,CLR,0.00,VWS V13.01,2013-03-23 05:13:00,
2013-03-22 22:18:00,51.8,47.4,29.78,East,89,0.0,0.0,85,0.00,,CLR,0.00,VWS V13.01,2013-03-23 05:18:00,
2013-03-22 22:23:00,51.8,47.4,29.79,East,89,0.0,0.0,85,0.00,,CLR,0.00,VWS V13.01,2013-03-23 05:23:00,
2013-03-22 22:28:00,51.7,47.3,29.79,East,89,0.0,0.0,85,0.00,,CLR,0.00,VWS V13.01,2013-03-23 05:28:00,
2013-03-22 22:33:00,51.6,47.2,29.80,East,89,0.0,1.0,85,0.00,,CLR,0.00,VWS V13.01,2013-03-23 05:33:00,
2013-03-22 22:38:00,51.6,46.9,29.80,East,89,0.0,0.0,84,0.00,,CLR,0.00,VWS V13.01,2013-03-23 05:38:00,
2013-03-22 22:43:00,51.3,46.6,29.80,ENE,77,0.0,2.0,84,0.00,,CLR,0.00,VWS V13.01,2013-03-23 05:43:00,
2013-03-22 22:48:00,51.0,46.7,29.80,ENE,77,0.0,2.0,85,0.00,,CLR,0.00,VWS V13.01,2013-03-23 05:48:00,
2013-03-22 22:53:00,50.7,46.0,29.80,ENE,77,0.0,2.0,84,0.00,,CLR,0.00,VWS V13.01,2013-03-23 05:53:00,
2013-03-22 22:58:00,50.4,45.4,29.80,East,82,1.0,2.0,83,0.00,,CLR,0.00,VWS V13.01,2013-03-23 05:58:00,
2013-03-22 23:03:00,50.2,45.6,29.80,East,83,0.0,2.0,84,0.00,,CLR,0.00,VWS V13.01,2013-03-23 06:03:00,
2013-03-22 23:08:00,50.1,45.5,29.79,East,84,0.0,0.0,84,0.00,,CLR,0.00,VWS V13.01,2013-03-23 06:08:00,
2013-03-22 23:13:00,50.1,45.2,29.80,East,84,0.0,0.0,83,0.00,,CLR,0.00,VWS V13.01,2013-03-23 06:13:00,
2013-03-22 23:18:00,50.0,45.0,29.79,East,84,0.0,1.0,83,0.00,,CLR,0.00,VWS V13.01,2013-03-23 06:18:00,
2013-03-22 23:23:00,49.9,45.0,29.79,East,91,1.0,2.0,83,0.00,,CLR,0.00,VWS V13.01,2013-03-23 06:23:00,
2013-03-22 23:28:00,49.8,45.2,29.79,East,90,0.0,2.0,84,0.00,,CLR,0.00,VWS V13.01,2013-03-23 06:28:00,
2013-03-22 23:34:00,49.7,45.4,29.80,East,90,0.0,2.0,85,0.00,,CLR,0.00,VWS V13.01,2013-03-23 06:34:00,
2013-03-22 23:39:00,49.5,44.6,29.80,East,93,0.0,0.0,83,0.00,,CLR,0.00,VWS V13.01,2013-03-23 06:39:00,
2013-03-22 23:44:00,49.4,44.8,29.80,East,92,0.0,1.0,84,0.00,,CLR,0.00,VWS V13.01,2013-03-23 06:44:00,
2013-03-22 23:49:00,49.5,44.9,29.80,East,93,0.0,1.0,84,0.00,,CLR,0.00,VWS V13.01,2013-03-23 06:49:00,
2013-03-22 23:54:00,49.7,45.1,29.80,East,93,0.0,2.0,84,0.00,,CLR,0.00,VWS V13.01,2013-03-23 06:54:00,
2013-03-22 23:59:00,49.7,44.8,29.80,East,93,0.0,2.0,83,0.00,,CLR,0.00,VWS V13.01,2013-03-23 06:59:00,